Time;durP1;ratioP1;P1;durP2;ratioP2;P2;SDS_P1;SDS_P2;PMS_P1;PMS_P2;Temp;Humidity;BMP_temperature;BMP_pressure;BME280_temperature;BME280_humidity;BME280_pressure;Samples;Min_cycle;Max_cycle;Signal;HPM_P1;HPM_P2
2023/05/12 00:00:11;;;;;;;;;;;;;;;14.33;41.02;99226.40;135581;1280;24203;-67
2023/05/12 00:03:34;;;;;;;;;;;;;;;14.28;41.05;99223.71;135401;1280;22520;-64
2023/05/12 00:06:39;;;;;;;;;;;;;;;14.25;41.29;99220.28;131343;1280;5366666;-64
2023/05/12 00:09:41;;;;;;;;;;;;;;;14.20;41.38;99224.61;135489;1263;23978;-68
2023/05/12 00:12:45;;;;;;;;;;;;;;;14.17;41.24;99224.81;135622;1280;22512;-66
2023/05/12 00:15:49;;;;;;;;;;;;;;;14.17;41.14;99225.35;135485;1280;22518;-63
2023/05/12 00:18:52;;;;;;;;;;;;;;;14.11;41.13;99224.73;135501;1280;22529;-64
2023/05/12 00:21:56;;;;;;;;;;;;;;;14.05;41.74;99227.29;135637;1280;23919;-65
2023/05/12 00:24:59;;;;;;;;;;;;;;;14.02;41.92;99230.95;135614;1280;22499;-65
2023/05/12 00:28:02;;;;;;;;;;;;;;;14.00;41.44;99236.22;135579;1280;22500;-67
2023/05/12 00:31:05;;;;;;;;;;;;;;;13.94;41.94;99230.14;135659;1280;22615;-68
2023/05/12 00:34:09;;;;;;;;;;;;;;;13.90;42.05;99231.65;135512;1280;22513;-66
2023/05/12 00:37:12;;;;;;;;;;;;;;;13.93;42.31;99232.50;135634;1280;22531;-67
2023/05/12 00:40:15;;;;;;;;;;;;;;;13.96;41.99;99237.00;135541;1280;25264;-65
2023/05/12 00:43:18;;;;;;;;;;;;;;;14.01;41.63;99234.70;135595;1264;24209;-68
2023/05/12 00:46:29;;;;;;;;;;;;;;;13.97;42.30;99235.91;135353;1280;24249;-66
2023/05/12 00:49:31;;;;;;;;;;;;;;;13.94;41.83;99236.25;135509;1280;22511;-67
2023/05/12 00:52:33;;;;;;;;;;;;;;;13.89;42.03;99238.38;135604;1280;22509;-66
2023/05/12 00:55:37;;;;;;;;;;;;;;;13.83;42.22;99240.34;135379;1279;22517;-64
2023/05/12 00:58:43;;;;;;;;;;;;;;;13.77;42.48;99237.39;135620;1279;22510;-68
2023/05/12 01:01:47;;;;;;;;;;;;;;;13.77;42.38;99237.10;135588;1279;23249;-70
2023/05/12 01:04:50;;;;;;;;;;;;;;;13.66;42.78;99240.45;135571;1279;22517;-66
2023/05/12 01:07:57;;;;;;;;;;;;;;;13.64;42.60;99241.45;135563;1279;22558;-68
2023/05/12 01:11:00;;;;;;;;;;;;;;;13.54;43.10;99244.26;135524;1279;22530;-67
2023/05/12 01:14:02;;;;;;;;;;;;;;;13.60;42.75;99243.86;135553;1279;22512;-66
2023/05/12 01:17:05;;;;;;;;;;;;;;;13.57;43.16;99242.64;135558;1279;22654;-67
2023/05/12 01:20:10;;;;;;;;;;;;;;;13.48;43.15;99246.74;135560;1279;22543;-65
2023/05/12 01:23:14;;;;;;;;;;;;;;;13.47;43.11;99244.17;135553;1279;22582;-67
2023/05/12 01:26:18;;;;;;;;;;;;;;;13.38;43.28;99242.65;135575;1279;22504;-67
2023/05/12 01:29:21;;;;;;;;;;;;;;;13.29;43.43;99241.80;135503;1277;23279;-68
2023/05/12 01:32:23;;;;;;;;;;;;;;;13.18;44.09;99238.80;135580;1263;25774;-64
2023/05/12 01:35:30;;;;;;;;;;;;;;;13.11;44.24;99237.14;135576;1264;23306;-63
2023/05/12 01:38:33;;;;;;;;;;;;;;;13.06;44.28;99239.08;135564;1279;22513;-67
2023/05/12 01:41:36;;;;;;;;;;;;;;;12.99;44.53;99240.04;135525;1279;22535;-63
2023/05/12 01:44:38;;;;;;;;;;;;;;;12.92;44.44;99241.71;135556;1279;22573;-64
2023/05/12 01:47:41;;;;;;;;;;;;;;;12.81;44.67;99245.56;135366;1279;22498;-68
2023/05/12 01:50:44;;;;;;;;;;;;;;;12.71;44.91;99245.13;135577;1257;24215;-65
2023/05/12 01:53:46;;;;;;;;;;;;;;;12.57;45.14;99243.08;135574;1279;22517;-65
2023/05/12 01:56:49;;;;;;;;;;;;;;;12.45;45.36;99246.55;135521;1279;22508;-67
2023/05/12 01:59:53;;;;;;;;;;;;;;;12.36;45.32;99245.06;135521;1279;22504;-66
2023/05/12 02:02:56;;;;;;;;;;;;;;;12.37;45.52;99248.52;135556;1279;22507;-66
2023/05/12 02:05:59;;;;;;;;;;;;;;;12.29;45.63;99246.70;135549;1279;22544;-65
2023/05/12 02:09:05;;;;;;;;;;;;;;;12.22;45.70;99245.34;135538;1279;22539;-65
2023/05/12 02:12:09;;;;;;;;;;;;;;;12.18;46.00;99242.82;135570;1279;22495;-68
2023/05/12 02:15:12;;;;;;;;;;;;;;;12.05;46.13;99246.06;135547;1280;22514;-66
2023/05/12 02:18:16;;;;;;;;;;;;;;;11.92;46.55;99248.55;135570;1280;22623;-64
2023/05/12 02:21:19;;;;;;;;;;;;;;;11.83;46.62;99252.36;135520;1279;22536;-68
2023/05/12 02:24:23;;;;;;;;;;;;;;;11.67;46.96;99254.74;135552;1279;22508;-66
2023/05/12 02:27:26;;;;;;;;;;;;;;;11.46;47.36;99257.51;135523;1277;22510;-67
2023/05/12 02:30:29;;;;;;;;;;;;;;;11.39;47.51;99255.85;135358;1281;22537;-64
2023/05/12 02:33:32;;;;;;;;;;;;;;;11.33;47.59;99256.38;135347;1281;22529;-68
2023/05/12 02:36:38;;;;;;;;;;;;;;;11.23;48.12;99259.72;135321;1281;22506;-64
2023/05/12 02:39:41;;;;;;;;;;;;;;;11.12;48.54;99260.69;135230;1281;22493;-64
2023/05/12 02:42:44;;;;;;;;;;;;;;;11.01;48.82;99259.20;135383;1281;22520;-64
2023/05/12 02:45:47;;;;;;;;;;;;;;;10.93;48.56;99263.48;135351;1281;22761;-68
2023/05/12 02:48:50;;;;;;;;;;;;;;;10.87;48.81;99264.51;135378;1281;22503;-66
2023/05/12 02:51:54;;;;;;;;;;;;;;;10.84;49.25;99265.03;135362;1281;22644;-68
2023/05/12 02:54:56;;;;;;;;;;;;;;;10.80;49.32;99265.75;135366;1281;22507;-69
2023/05/12 02:58:00;;;;;;;;;;;;;;;10.71;49.39;99267.47;135345;1281;22516;-64
2023/05/12 03:01:03;;;;;;;;;;;;;;;10.63;49.81;99265.64;135323;1281;22521;-66
2023/05/12 03:04:06;;;;;;;;;;;;;;;10.59;49.83;99267.59;135379;1281;22496;-68
2023/05/12 03:07:13;;;;;;;;;;;;;;;10.52;50.51;99267.44;135364;1281;22498;-68
2023/05/12 03:10:17;;;;;;;;;;;;;;;10.49;50.64;99264.63;135337;1281;22482;-70
2023/05/12 03:13:21;;;;;;;;;;;;;;;10.50;50.92;99260.36;135355;1281;22602;-67
2023/05/12 03:16:24;;;;;;;;;;;;;;;10.56;51.64;99260.41;135388;1281;22537;-66
2023/05/12 03:19:27;;;;;;;;;;;;;;;10.57;51.59;99258.77;135355;1280;22507;-68
2023/05/12 03:22:30;;;;;;;;;;;;;;;10.57;51.50;99261.07;135370;1281;22535;-67
2023/05/12 03:25:33;;;;;;;;;;;;;;;10.62;51.95;99259.41;135224;1281;26489;-66
2023/05/12 03:28:37;;;;;;;;;;;;;;;10.66;52.12;99258.30;135414;1273;22519;-64
2023/05/12 03:31:40;;;;;;;;;;;;;;;10.87;52.39;99257.15;135446;1272;22517;-64
2023/05/12 03:34:43;;;;;;;;;;;;;;;11.05;51.32;99258.60;135282;1281;22516;-64
2023/05/12 03:37:46;;;;;;;;;;;;;;;11.24;51.61;99256.52;135293;1281;22557;-65
2023/05/12 03:40:51;;;;;;;;;;;;;;;11.43;51.52;99255.80;135275;1282;22516;-66
2023/05/12 03:43:54;;;;;;;;;;;;;;;11.56;51.05;99255.38;135310;1261;22511;-64
2023/05/12 03:46:57;;;;;;;;;;;;;;;11.74;51.93;99255.70;135349;1281;22511;-67
2023/05/12 03:50:00;;;;;;;;;;;;;;;11.93;51.34;99253.92;135229;1282;22512;-67
2023/05/12 03:53:05;;;;;;;;;;;;;;;12.02;51.78;99257.27;135306;1279;22511;-63
2023/05/12 03:56:08;;;;;;;;;;;;;;;12.20;51.62;99257.95;135287;1264;22519;-66
2023/05/12 03:59:11;;;;;;;;;;;;;;;12.39;51.24;99257.29;135314;1281;22515;-65
2023/05/12 04:02:15;;;;;;;;;;;;;;;12.68;50.91;99257.45;135304;1280;22605;-65
2023/05/12 04:05:19;;;;;;;;;;;;;;;12.88;50.45;99257.60;135296;1275;22516;-69
2023/05/12 04:08:22;;;;;;;;;;;;;;;13.05;50.37;99257.55;135305;1262;23132;-64
2023/05/12 04:11:25;;;;;;;;;;;;;;;13.27;49.92;99256.16;135294;1281;22508;-68
2023/05/12 04:14:28;;;;;;;;;;;;;;;13.51;49.69;99260.55;135307;1281;22519;-69
2023/05/12 04:17:51;;;;;;;;;;;;;;;13.63;49.55;99264.72;135219;1281;22501;-64
2023/05/12 04:20:57;;;;;;;;;;;;;;;13.83;49.38;99262.30;135311;1282;25467;-64
2023/05/12 04:24:01;;;;;;;;;;;;;;;14.02;48.97;99263.50;135228;1282;22503;-66
2023/05/12 04:27:03;;;;;;;;;;;;;;;14.32;48.41;99267.95;135329;1282;22513;-64
2023/05/12 04:30:07;;;;;;;;;;;;;;;14.60;48.07;99267.80;135265;1281;22514;-65
2023/05/12 04:33:09;;;;;;;;;;;;;;;14.82;47.39;99266.77;135405;1280;22570;-64
2023/05/12 04:36:12;;;;;;;;;;;;;;;15.07;46.83;99263.41;135557;1262;22572;-65
2023/05/12 04:39:17;;;;;;;;;;;;;;;15.08;46.35;99262.45;135557;1280;22504;-66
2023/05/12 04:42:23;;;;;;;;;;;;;;;15.14;46.23;99264.86;135520;1280;23140;-63
2023/05/12 04:45:27;;;;;;;;;;;;;;;15.16;46.52;99261.48;135522;1280;22538;-63
2023/05/12 04:48:30;;;;;;;;;;;;;;;15.45;46.32;99262.77;135546;1280;22535;-68
2023/05/12 04:51:33;;;;;;;;;;;;;;;15.69;45.83;99266.96;135515;1280;22504;-66
2023/05/12 04:54:37;;;;;;;;;;;;;;;15.85;45.83;99264.59;135464;1280;22504;-64
2023/05/12 04:57:41;;;;;;;;;;;;;;;15.92;45.41;99266.82;135500;1280;22507;-66
2023/05/12 05:00:43;;;;;;;;;;;;;;;16.02;45.28;99273.29;135523;1280;22511;-66
2023/05/12 05:03:48;;;;;;;;;;;;;;;16.17;45.02;99273.42;135357;1280;22532;-67
2023/05/12 05:06:54;;;;;;;;;;;;;;;16.43;44.64;99272.83;135540;1280;22500;-66
2023/05/12 05:09:57;;;;;;;;;;;;;;;16.72;44.22;99272.65;135502;1280;22578;-68
2023/05/12 05:13:01;;;;;;;;;;;;;;;16.83;43.83;99272.30;135493;1280;22542;-66
2023/05/12 05:16:05;;;;;;;;;;;;;;;17.00;43.67;99277.75;135533;1280;22509;-68
2023/05/12 05:19:09;;;;;;;;;;;;;;;17.05;43.68;99278.89;135451;1280;25384;-68
2023/05/12 05:22:13;;;;;;;;;;;;;;;17.31;43.46;99280.20;135512;1280;22504;-66
2023/05/12 05:25:15;;;;;;;;;;;;;;;17.52;42.45;99283.76;135502;1262;22517;-67
2023/05/12 05:28:18;;;;;;;;;;;;;;;17.64;42.44;99285.41;135519;1280;22520;-69
2023/05/12 05:31:24;;;;;;;;;;;;;;;17.78;42.26;99287.91;135493;1280;22510;-65
2023/05/12 05:34:27;;;;;;;;;;;;;;;17.83;42.03;99288.42;135396;1279;24272;-66
2023/05/12 05:37:30;;;;;;;;;;;;;;;17.85;41.52;99289.33;135505;1279;22507;-70
2023/05/12 05:40:36;;;;;;;;;;;;;;;18.01;41.70;99293.18;135483;1262;22504;-67
2023/05/12 05:43:40;;;;;;;;;;;;;;;18.09;41.44;99293.36;135472;1279;22525;-67
2023/05/12 05:46:42;;;;;;;;;;;;;;;18.25;41.02;99294.34;135497;1269;22543;-67
2023/05/12 05:49:45;;;;;;;;;;;;;;;18.38;40.61;99291.48;135492;1279;22533;-68
2023/05/12 05:52:48;;;;;;;;;;;;;;;18.46;41.17;99295.02;135359;1279;25382;-68
2023/05/12 05:55:51;;;;;;;;;;;;;;;18.69;40.88;99297.23;135430;1279;25609;-70
2023/05/12 05:58:54;;;;;;;;;;;;;;;18.82;40.70;99296.36;135468;1279;25446;-68
2023/05/12 06:01:57;;;;;;;;;;;;;;;19.14;40.37;99294.40;135374;1279;22576;-66
2023/05/12 06:05:00;;;;;;;;;;;;;;;19.29;39.87;99298.25;135339;1262;24393;-68
2023/05/12 06:08:04;;;;;;;;;;;;;;;19.43;40.32;99298.53;135458;1262;23091;-69
2023/05/12 06:11:06;;;;;;;;;;;;;;;19.64;39.51;99297.16;135503;1279;22507;-69
2023/05/12 06:14:10;;;;;;;;;;;;;;;19.70;39.36;99301.79;135388;1258;22711;-70
2023/05/12 06:17:13;;;;;;;;;;;;;;;19.69;39.72;99303.31;135281;1262;22631;-67
2023/05/12 06:20:16;;;;;;;;;;;;;;;19.83;39.31;99305.60;135165;1279;22532;-68
2023/05/12 06:23:19;;;;;;;;;;;;;;;19.98;39.13;99308.34;135862;1279;22481;-67
2023/05/12 06:26:22;;;;;;;;;;;;;;;20.21;39.35;99304.73;135759;1279;22517;-69
2023/05/12 06:29:25;;;;;;;;;;;;;;;20.48;38.94;99302.72;135526;1259;22517;-68
2023/05/12 06:32:28;;;;;;;;;;;;;;;20.82;38.96;99305.59;135545;1280;25453;-68
2023/05/12 06:35:31;;;;;;;;;;;;;;;21.08;38.51;99306.89;135503;1280;22526;-69
2023/05/12 06:38:34;;;;;;;;;;;;;;;21.22;37.79;99311.33;135532;1280;22523;-68
2023/05/12 06:41:40;;;;;;;;;;;;;;;21.35;37.59;99312.75;135539;1280;22624;-68
2023/05/12 06:44:44;;;;;;;;;;;;;;;21.44;37.64;99307.84;135534;1280;22528;-68
2023/05/12 06:47:47;;;;;;;;;;;;;;;21.58;36.96;99307.91;135500;1280;22530;-68
2023/05/12 06:50:51;;;;;;;;;;;;;;;21.61;36.77;99310.80;135502;1280;22510;-70
2023/05/12 06:53:54;;;;;;;;;;;;;;;21.69;36.50;99311.99;135532;1280;22516;-68
2023/05/12 06:56:58;;;;;;;;;;;;;;;21.82;36.59;99313.61;135447;1280;22528;-68
2023/05/12 07:00:02;;;;;;;;;;;;;;;21.99;36.46;99311.38;135519;1280;22516;-69
2023/05/12 07:03:04;;;;;;;;;;;;;;;22.14;36.04;99311.02;135554;1280;22523;-69
2023/05/12 07:06:07;;;;;;;;;;;;;;;22.14;35.40;99312.52;135478;1280;22511;-68
2023/05/12 07:09:10;;;;;;;;;;;;;;;22.23;35.89;99312.98;135487;1280;22556;-70
2023/05/12 07:12:14;;;;;;;;;;;;;;;22.37;35.27;99315.14;135534;1258;22514;-68
2023/05/12 07:15:16;;;;;;;;;;;;;;;22.29;34.92;99316.77;135471;1280;22523;-69
2023/05/12 07:18:19;;;;;;;;;;;;;;;22.46;35.84;99316.89;135502;1280;22537;-70
2023/05/12 07:21:23;;;;;;;;;;;;;;;22.76;35.91;99317.62;135517;1280;22543;-68
2023/05/12 07:24:26;;;;;;;;;;;;;;;22.98;35.00;99309.69;135510;1280;22514;-68
2023/05/12 07:27:29;;;;;;;;;;;;;;;23.07;34.06;99311.39;135526;1280;22515;-68
2023/05/12 07:30:32;;;;;;;;;;;;;;;23.18;34.29;99311.11;135502;1280;22500;-71
2023/05/12 07:33:35;;;;;;;;;;;;;;;23.17;33.79;99314.33;135532;1280;25268;-67
2023/05/12 07:36:38;;;;;;;;;;;;;;;23.27;33.37;99312.88;135499;1280;22504;-68
2023/05/12 07:39:41;;;;;;;;;;;;;;;23.16;33.04;99316.52;135569;1280;24381;-69
2023/05/12 07:42:44;;;;;;;;;;;;;;;23.12;33.20;99321.03;135550;1262;24222;-69
2023/05/12 07:45:48;;;;;;;;;;;;;;;23.32;33.58;99320.73;135558;1280;22537;-68
2023/05/12 07:48:51;;;;;;;;;;;;;;;23.43;33.20;99319.80;135561;1280;22520;-69
2023/05/12 07:51:54;;;;;;;;;;;;;;;23.57;32.38;99319.05;135528;1258;24211;-67
2023/05/12 07:54:57;;;;;;;;;;;;;;;23.62;32.01;99318.06;135546;1280;24196;-69
2023/05/12 07:58:00;;;;;;;;;;;;;;;23.74;32.44;99324.00;135510;1280;22532;-70
2023/05/12 08:01:05;;;;;;;;;;;;;;;23.89;32.01;99322.02;135399;1280;22528;-68
2023/05/12 08:04:08;;;;;;;;;;;;;;;24.02;31.73;99319.10;135518;1280;22521;-69
2023/05/12 08:07:11;;;;;;;;;;;;;;;24.22;31.81;99320.17;135574;1280;22483;-70
2023/05/12 08:10:14;;;;;;;;;;;;;;;24.28;31.48;99322.16;135545;1280;22527;-68
2023/05/12 08:13:17;;;;;;;;;;;;;;;24.49;31.62;99324.35;135557;1280;23228;-68
2023/05/12 08:16:20;;;;;;;;;;;;;;;24.64;31.12;99320.58;135557;1280;22512;-70
2023/05/12 08:19:23;;;;;;;;;;;;;;;24.56;30.88;99323.19;135517;1280;22537;-69
2023/05/12 08:22:25;;;;;;;;;;;;;;;24.49;30.52;99321.60;135556;1280;22510;-68
2023/05/12 08:25:29;;;;;;;;;;;;;;;24.37;30.52;99320.13;135572;1280;22533;-67
2023/05/12 08:28:32;;;;;;;;;;;;;;;24.32;30.84;99317.48;135549;1280;23879;-68
2023/05/12 08:31:36;;;;;;;;;;;;;;;24.48;30.53;99318.86;135517;1280;22524;-69
2023/05/12 08:34:39;;;;;;;;;;;;;;;24.52;29.93;99316.80;135499;1262;22498;-68
2023/05/12 08:37:42;;;;;;;;;;;;;;;24.52;29.77;99320.09;135529;1280;22542;-70
2023/05/12 08:40:45;;;;;;;;;;;;;;;24.53;30.45;99317.98;135604;1262;22555;-68
2023/05/12 08:43:48;;;;;;;;;;;;;;;24.47;29.81;99316.11;135572;1280;22649;-68
2023/05/12 08:46:51;;;;;;;;;;;;;;;24.47;30.21;99322.56;135514;1280;22517;-72
2023/05/12 08:49:58;;;;;;;;;;;;;;;24.70;30.69;99324.86;135601;1280;22582;-68
2023/05/12 08:53:01;;;;;;;;;;;;;;;24.92;30.49;99325.44;135587;1280;22496;-72
2023/05/12 08:56:04;;;;;;;;;;;;;;;24.93;30.08;99326.69;135550;1280;25329;-69
2023/05/12 08:59:07;;;;;;;;;;;;;;;24.80;29.75;99323.79;135519;1280;22513;-68
2023/05/12 09:02:10;;;;;;;;;;;;;;;24.83;30.68;99324.44;135562;1280;24258;-70
2023/05/12 09:05:13;;;;;;;;;;;;;;;24.98;30.36;99325.90;135568;1280;22520;-70
2023/05/12 09:08:16;;;;;;;;;;;;;;;24.96;30.01;99319.34;135598;1261;22509;-70
2023/05/12 09:11:20;;;;;;;;;;;;;;;25.10;30.36;99321.72;135583;1279;22505;-70
2023/05/12 09:14:24;;;;;;;;;;;;;;;25.13;29.48;99321.88;135582;1279;22516;-70
2023/05/12 09:17:27;;;;;;;;;;;;;;;25.05;29.57;99315.27;135571;1279;22520;-69
2023/05/12 09:20:30;;;;;;;;;;;;;;;25.19;29.22;99318.85;135585;1279;22536;-69
2023/05/12 09:23:33;;;;;;;;;;;;;;;25.36;29.29;99325.67;135606;1279;22505;-69
2023/05/12 09:26:37;;;;;;;;;;;;;;;25.62;28.91;99325.73;135465;1279;22520;-69
2023/05/12 09:29:40;;;;;;;;;;;;;;;25.64;28.73;99327.98;135573;1279;22489;-70
2023/05/12 09:32:43;;;;;;;;;;;;;;;25.73;28.92;99326.11;135568;1262;22619;-71
2023/05/12 09:35:46;;;;;;;;;;;;;;;25.87;28.87;99325.33;135640;1280;22514;-69
2023/05/12 09:38:52;;;;;;;;;;;;;;;25.99;29.02;99322.61;135548;1280;22528;-69
2023/05/12 09:41:55;;;;;;;;;;;;;;;26.06;28.22;99322.24;135591;1279;22612;-71
2023/05/12 09:44:59;;;;;;;;;;;;;;;25.99;28.17;99329.71;135579;1279;22615;-70
2023/05/12 09:48:02;;;;;;;;;;;;;;;26.05;28.42;99321.77;135555;1279;22529;-72
2023/05/12 09:51:06;;;;;;;;;;;;;;;26.21;28.22;99317.89;135554;1279;22521;-67
2023/05/12 09:54:11;;;;;;;;;;;;;;;26.40;27.84;99324.63;135566;1279;22514;-70
2023/05/12 09:57:14;;;;;;;;;;;;;;;26.48;27.51;99321.39;135580;1279;22512;-70
2023/05/12 10:00:18;;;;;;;;;;;;;;;26.57;27.31;99316.30;135553;1279;22534;-70
2023/05/12 10:03:22;;;;;;;;;;;;;;;26.62;27.70;99312.73;135524;1279;22521;-72
2023/05/12 10:06:27;;;;;;;;;;;;;;;26.67;27.85;99318.52;135601;1279;22514;-69
2023/05/12 10:09:30;;;;;;;;;;;;;;;26.72;27.27;99312.95;135582;1279;22511;-70
2023/05/12 10:12:34;;;;;;;;;;;;;;;26.56;27.65;99317.70;135471;1279;22538;-70
2023/05/12 10:15:41;;;;;;;;;;;;;;;26.69;27.17;99317.23;135587;1279;22536;-68
2023/05/12 10:18:44;;;;;;;;;;;;;;;26.73;27.34;99314.27;135560;1279;25272;-69
2023/05/12 10:21:47;;;;;;;;;;;;;;;27.03;27.74;99320.70;135610;1279;22519;-69
2023/05/12 10:24:50;;;;;;;;;;;;;;;27.29;27.37;99314.30;135597;1279;22510;-70
2023/05/12 10:27:53;;;;;;;;;;;;;;;27.56;26.82;99314.56;135556;1262;22497;-72
2023/05/12 10:30:57;;;;;;;;;;;;;;;27.78;26.52;99310.67;135440;1279;22552;-69
2023/05/12 10:34:00;;;;;;;;;;;;;;;27.90;26.10;99309.40;135637;1262;22511;-70
2023/05/12 10:37:03;;;;;;;;;;;;;;;27.69;26.29;99310.55;135596;1279;22510;-74
2023/05/12 10:40:06;;;;;;;;;;;;;;;27.47;25.97;99315.50;135629;1279;22529;-69
2023/05/12 10:43:10;;;;;;;;;;;;;;;26.56;26.11;99310.30;135636;1262;22507;-71
2023/05/12 10:46:13;;;;;;;;;;;;;;;25.75;26.65;99309.49;135586;1279;24237;-71
2023/05/12 10:49:16;;;;;;;;;;;;;;;25.64;27.45;99306.20;135563;1279;22504;-68
2023/05/12 10:52:20;;;;;;;;;;;;;;;26.40;27.84;99307.80;135562;1279;25350;-68
2023/05/12 10:55:23;;;;;;;;;;;;;;;26.91;26.86;99305.13;135602;1262;24215;-70
2023/05/12 10:58:26;;;;;;;;;;;;;;;26.55;26.25;99317.73;135579;1280;22510;-68
2023/05/12 11:01:28;;;;;;;;;;;;;;;25.72;26.46;99311.64;135523;1280;22523;-70
2023/05/12 11:04:32;;;;;;;;;;;;;;;25.69;27.04;99319.18;135626;1280;22513;-70
2023/05/12 11:07:36;;;;;;;;;;;;;;;26.04;26.88;99314.52;135602;1280;22515;-69
2023/05/12 11:10:39;;;;;;;;;;;;;;;26.60;26.70;99314.33;135635;1280;22530;-69
2023/05/12 11:13:44;;;;;;;;;;;;;;;27.07;25.81;99316.41;135595;1280;22512;-68
2023/05/12 11:16:48;;;;;;;;;;;;;;;27.38;25.83;99314.80;135630;1280;22995;-69
2023/05/12 11:19:51;;;;;;;;;;;;;;;27.77;25.89;99304.23;135621;1280;22529;-70
2023/05/12 11:22:54;;;;;;;;;;;;;;;28.02;25.78;99301.05;135554;1280;22526;-69
2023/05/12 11:25:59;;;;;;;;;;;;;;;27.81;24.85;99309.04;135624;1279;22503;-73
2023/05/12 11:29:02;;;;;;;;;;;;;;;27.74;24.19;99306.02;135583;1280;22500;-74
2023/05/12 11:32:06;;;;;;;;;;;;;;;27.72;24.79;99311.98;135591;1279;22510;-70
2023/05/12 11:35:10;;;;;;;;;;;;;;;27.09;24.43;99316.92;135475;1280;22504;-71
2023/05/12 11:38:14;;;;;;;;;;;;;;;26.67;25.11;99319.94;135579;1280;22534;-69
2023/05/12 11:41:17;;;;;;;;;;;;;;;27.30;25.45;99305.11;135534;1280;22515;-69
2023/05/12 11:44:21;;;;;;;;;;;;;;;27.98;24.64;99307.70;135621;1280;25390;-71
2023/05/12 11:47:25;;;;;;;;;;;;;;;27.26;23.75;99298.75;135604;1280;22523;-72
2023/05/12 11:50:29;;;;;;;;;;;;;;;26.01;24.52;99309.40;135520;1280;22506;-68
2023/05/12 11:53:34;;;;;;;;;;;;;;;26.05;25.19;99313.82;135626;1280;22503;-73
2023/05/12 11:56:37;;;;;;;;;;;;;;;26.58;25.63;99316.04;135557;1280;22503;-68
2023/05/12 11:59:40;;;;;;;;;;;;;;;27.03;25.10;99314.94;135578;1280;24253;-69
2023/05/12 12:02:44;;;;;;;;;;;;;;;27.16;24.61;99316.59;135551;1280;22507;-69
2023/05/12 12:05:48;;;;;;;;;;;;;;;26.67;24.42;99317.90;131525;1280;5361202;-68
2023/05/12 12:08:51;;;;;;;;;;;;;;;26.69;24.74;99325.98;135312;1280;23136;-70
2023/05/12 12:11:54;;;;;;;;;;;;;;;26.31;24.72;99327.85;135627;1280;22522;-69
2023/05/12 12:14:59;;;;;;;;;;;;;;;25.87;25.00;99331.90;135670;1280;25338;-69
2023/05/12 12:18:01;;;;;;;;;;;;;;;26.18;24.94;99321.77;135620;1280;22533;-70
2023/05/12 12:21:05;;;;;;;;;;;;;;;25.79;24.55;99321.05;135345;1280;22650;-72
2023/05/12 12:24:07;;;;;;;;;;;;;;;25.58;25.33;99324.41;135610;1280;22507;-70
2023/05/12 12:27:10;;;;;;;;;;;;;;;25.61;25.03;99320.73;135569;1280;25694;-69
2023/05/12 12:30:14;;;;;;;;;;;;;;;25.72;25.09;99325.14;135595;1280;22508;-70
2023/05/12 12:33:17;;;;;;;;;;;;;;;26.24;24.87;99320.65;135613;1280;22541;-71
2023/05/12 12:36:21;;;;;;;;;;;;;;;26.56;24.57;99323.25;135626;1280;22546;-70
2023/05/12 12:39:25;;;;;;;;;;;;;;;27.35;24.84;99313.23;135620;1280;22541;-71
2023/05/12 12:42:28;;;;;;;;;;;;;;;27.76;23.63;99308.77;135529;1280;22533;-68
2023/05/12 12:45:31;;;;;;;;;;;;;;;27.51;23.63;99315.80;135663;1280;22684;-70
2023/05/12 12:48:35;;;;;;;;;;;;;;;27.80;23.58;99314.09;135488;1280;22519;-69
2023/05/12 12:51:38;;;;;;;;;;;;;;;28.14;22.61;99306.80;135629;1280;22549;-68
2023/05/12 12:54:42;;;;;;;;;;;;;;;27.71;23.48;99316.44;135600;1280;22527;-68
2023/05/12 12:57:46;;;;;;;;;;;;;;;26.97;23.17;99322.15;135549;1280;22634;-67
2023/05/12 13:00:50;;;;;;;;;;;;;;;26.38;23.37;99322.70;135656;1280;22503;-70
2023/05/12 13:03:54;;;;;;;;;;;;;;;25.98;23.86;99320.85;135670;1280;22503;-72
2023/05/12 13:06:57;;;;;;;;;;;;;;;25.37;23.67;99315.92;135663;1280;22501;-67
2023/05/12 13:10:01;;;;;;;;;;;;;;;24.70;24.42;99323.99;135496;1280;22500;-68
2023/05/12 13:13:05;;;;;;;;;;;;;;;25.33;25.60;99315.64;135646;1280;22516;-70
2023/05/12 13:16:07;;;;;;;;;;;;;;;26.16;24.20;99312.42;135582;1280;22555;-70
2023/05/12 13:19:10;;;;;;;;;;;;;;;26.28;24.16;99322.46;135488;1280;22518;-69
2023/05/12 13:22:12;;;;;;;;;;;;;;;26.28;24.12;99323.62;135616;1280;25252;-69
2023/05/12 13:25:16;;;;;;;;;;;;;;;26.65;23.91;99317.58;135645;1280;22500;-71
2023/05/12 13:28:19;;;;;;;;;;;;;;;26.72;23.90;99315.29;135547;1280;22550;-69
2023/05/12 13:31:23;;;;;;;;;;;;;;;26.13;24.03;99319.25;135617;1280;22507;-72
2023/05/12 13:34:26;;;;;;;;;;;;;;;26.16;24.83;99314.32;135570;1280;22526;-70
2023/05/12 13:37:30;;;;;;;;;;;;;;;26.71;24.38;99308.40;135606;1280;22504;-68
2023/05/12 13:40:34;;;;;;;;;;;;;;;27.35;23.55;99299.28;135626;1280;22514;-70
2023/05/12 13:43:37;;;;;;;;;;;;;;;27.90;23.51;99298.30;135615;1280;22566;-67
2023/05/12 13:46:41;;;;;;;;;;;;;;;27.59;22.67;99309.10;135612;1280;22507;-68
2023/05/12 13:49:44;;;;;;;;;;;;;;;26.90;23.24;99313.10;135657;1280;22493;-70
2023/05/12 13:52:48;;;;;;;;;;;;;;;26.90;23.30;99307.77;135581;1280;22520;-68
2023/05/12 13:55:51;;;;;;;;;;;;;;;27.37;23.88;99302.20;135621;1280;22981;-69
2023/05/12 13:58:55;;;;;;;;;;;;;;;27.14;23.39;99310.40;135576;1280;25431;-68
2023/05/12 14:01:58;;;;;;;;;;;;;;;26.90;23.08;99319.98;135616;1280;22497;-69
2023/05/12 14:05:01;;;;;;;;;;;;;;;26.90;23.73;99310.95;135581;1280;22605;-68
2023/05/12 14:08:05;;;;;;;;;;;;;;;27.47;23.70;99299.89;135532;1280;25217;-69
2023/05/12 14:11:09;;;;;;;;;;;;;;;27.84;23.88;99300.44;135588;1280;22499;-69
2023/05/12 14:14:12;;;;;;;;;;;;;;;27.88;23.12;99296.40;135599;1280;22468;-70
2023/05/12 14:17:15;;;;;;;;;;;;;;;26.78;22.91;99307.69;135585;1280;22510;-72
2023/05/12 14:20:17;;;;;;;;;;;;;;;25.48;23.52;99300.10;135590;1280;23102;-69
2023/05/12 14:23:20;;;;;;;;;;;;;;;24.93;24.26;99308.67;135405;1280;25345;-69
2023/05/12 14:26:24;;;;;;;;;;;;;;;25.03;24.72;99306.11;135567;1262;25431;-71
2023/05/12 14:29:28;;;;;;;;;;;;;;;25.22;24.14;99300.55;135645;1280;22515;-71
2023/05/12 14:32:33;;;;;;;;;;;;;;;25.09;24.62;99308.20;135584;1280;22611;-72
2023/05/12 14:35:36;;;;;;;;;;;;;;;25.20;24.56;99305.66;135568;1280;22519;-69
2023/05/12 14:38:39;;;;;;;;;;;;;;;25.20;24.83;99311.52;135596;1262;23002;-67
2023/05/12 14:41:42;;;;;;;;;;;;;;;25.08;24.95;99308.27;135595;1280;24384;-69
2023/05/12 14:44:45;;;;;;;;;;;;;;;24.52;24.95;99312.52;135619;1280;22507;-71
2023/05/12 14:47:48;;;;;;;;;;;;;;;24.23;25.78;99313.15;135568;1280;22555;-71
2023/05/12 14:50:51;;;;;;;;;;;;;;;25.00;25.50;99315.98;135624;1280;24350;-67
2023/05/12 14:53:55;;;;;;;;;;;;;;;25.49;24.79;99315.23;135603;1267;22541;-66
2023/05/12 14:56:58;;;;;;;;;;;;;;;25.18;24.57;99312.89;135609;1279;25378;-68
2023/05/12 15:00:01;;;;;;;;;;;;;;;24.97;24.74;99314.27;135474;1262;22523;-69
2023/05/12 15:03:04;;;;;;;;;;;;;;;25.38;25.04;99306.46;135452;1262;22498;-68
2023/05/12 15:06:07;;;;;;;;;;;;;;;25.82;24.60;99308.22;135602;1279;22516;-69
2023/05/12 15:09:09;;;;;;;;;;;;;;;25.82;24.08;99306.05;135607;1279;22507;-66
2023/05/12 15:12:12;;;;;;;;;;;;;;;26.28;23.94;99307.27;135661;1262;22625;-71
2023/05/12 15:15:17;;;;;;;;;;;;;;;28.59;22.32;99300.95;135514;1279;23340;-67
2023/05/12 15:18:20;;;;;;;;;;;;;;;30.42;21.48;99302.70;135487;1279;22513;-68
2023/05/12 15:21:23;;;;;;;;;;;;;;;29.53;20.10;99294.91;135580;1280;24375;-71
2023/05/12 15:24:29;;;;;;;;;;;;;;;27.55;21.66;99315.70;135587;1280;22519;-66
2023/05/12 15:27:32;;;;;;;;;;;;;;;26.68;22.52;99321.14;135291;1265;22514;-70
2023/05/12 15:30:36;;;;;;;;;;;;;;;26.08;22.89;99317.48;135554;1280;22506;-71
2023/05/12 15:33:40;;;;;;;;;;;;;;;25.43;23.24;99316.63;135563;1280;22526;-68
2023/05/12 15:36:44;;;;;;;;;;;;;;;25.26;23.58;99310.49;135604;1280;22523;-67
2023/05/12 15:39:47;;;;;;;;;;;;;;;25.84;23.41;99310.09;135599;1280;22515;-68